Terminal Aerodrome Forecast
Issued by NWS Cleveland, OH

Home | Current Version | Previous Version | Text Only | Print | Product List | Glossary Off
Versions: 1 2 3 4 5 6 7 8 9 10 11 12

596
FTUS41 KCLE 162320
TAFMFD
TAF
KMFD 162320Z 1700/1724 20003KT P6SM SCT050
     FM171500 22012G18KT P6SM SKC=

USA.gov is the U.S. government's official web portal to all federal, state and local government web resources and services.